Agios Nikolas — SVAV5 — position and weather

sailwx.info

Track history (hours):
 
Tides and Currents Weather Stations Pressure Air Temp Water Temp Dewpoint Dewpoint Depression Visibility Wind Speed Wind Dir Waves Ship Positions

Agios Nikolas

Last reported at 2016-Jun-11 04:32 UTC. Time now 2016-Jun-26 01:03 UTC.
Position N 01°56' E 102°19'.
Warning: this ship's position is 14 days out of date.

Length 225 m; draft 12.5 m.

Type: Cargo ship. MMSI: 240963000.

Date/timePositionNaut miles runAvg speedWind from/ knotsBaromVisibWave heightAir tempDewpointWater temp
2016-Jun-11 04:32N 01°56' E 102°19'1010.5
2016-Jun-11 03:33N 01°51' E 102°28'1110.8
2016-Jun-11 02:33N 01°47' E 102°38'7411.4
2016-Jun-10 20:07N 01°10' E 103°42'5 8.0
2016-Jun-10 19:32N 01°09' E 103°46'8 8.6
2016-Jun-10 18:34N 01°13' E 103°53'5 4.4
2016-Jun-10 17:28N 01°17' E 103°56'0 0.0
2016-Jun-10 13:14N 01°17' E 103°57'0 0.0
2016-Jun-10 12:23N 01°17' E 103°57'0 0.1
2016-Jun-10 11:29N 01°17' E 103°57'0 0.1
2016-Jun-10 10:29N 01°17' E 103°57'0 0.0
2016-Jun-10 09:29N 01°17' E 103°57'0 0.0
2016-Jun-10 08:29N 01°17' E 103°57'0 0.0
2016-Jun-10 07:29N 01°17' E 103°57'0 0.0
2016-Jun-10 04:32N 01°17' E 103°57'0 0.4
2016-Jun-10 03:33N 01°17' E 103°57'6 5.9
2016-Jun-10 02:34N 01°16' E 104°03'  
Track history (hours):
 
Tides and Currents Weather Stations Pressure Air Temp Water Temp Dewpoint Dewpoint Depression Visibility Wind Speed Wind Dir Waves Ship Positions

Agios Nikolas

Last reported at 2016-Jun-11 04:32 UTC. Time now 2016-Jun-26 01:03 UTC.
Position N 01°56' E 102°19'.
Warning: this ship's position is 14 days out of date.

Length 225 m; draft 12.5 m.

Type: Cargo ship. MMSI: 240963000.

Date/timePositionNaut miles runAvg speedWind from/ knotsBaromVisibWave heightAir tempDewpointWater temp
2016-Jun-11 04:32N 01°56' E 102°19'1010.5
2016-Jun-11 03:33N 01°51' E 102°28'1110.8
2016-Jun-11 02:33N 01°47' E 102°38'7411.4
2016-Jun-10 20:07N 01°10' E 103°42'5 8.0
2016-Jun-10 19:32N 01°09' E 103°46'8 8.6
2016-Jun-10 18:34N 01°13' E 103°53'5 4.4
2016-Jun-10 17:28N 01°17' E 103°56'0 0.0
2016-Jun-10 13:14N 01°17' E 103°57'0 0.0
2016-Jun-10 12:23N 01°17' E 103°57'0 0.1
2016-Jun-10 11:29N 01°17' E 103°57'0 0.1
2016-Jun-10 10:29N 01°17' E 103°57'0 0.0
2016-Jun-10 09:29N 01°17' E 103°57'0 0.0
2016-Jun-10 08:29N 01°17' E 103°57'0 0.0
2016-Jun-10 07:29N 01°17' E 103°57'0 0.0
2016-Jun-10 04:32N 01°17' E 103°57'0 0.4
2016-Jun-10 03:33N 01°17' E 103°57'6 5.9
2016-Jun-10 02:34N 01°16' E 104°03'  

Dump ship's entire track history